Time;durP1;ratioP1;P1;durP2;ratioP2;P2;SDS_P1;SDS_P2;PMS_P1;PMS_P2;Temp;Humidity;BMP_temperature;BMP_pressure;BME280_temperature;BME280_humidity;BME280_pressure;Samples;Min_cycle;Max_cycle;Signal;HPM_P1;HPM_P2
2021/10/17 00:01:11;;;;;;;;;14.00;10.25;;;;;20.59;37.63;101487.63;4999505;28;45337;-56
2021/10/17 00:03:36;;;;;;;;;13.75;10.75;;;;;20.59;37.40;101483.19;5017211;28;45479;-55
2021/10/17 00:06:02;;;;;;;;;10.50;8.00;;;;;20.58;37.48;101478.84;5017460;28;45429;-56
2021/10/17 00:08:27;;;;;;;;;5.75;5.50;;;;;20.59;37.87;101482.34;5017323;28;45594;-56
2021/10/17 00:10:53;;;;;;;;;11.00;8.50;;;;;20.58;37.56;101473.56;5017181;28;45434;-56
2021/10/17 00:13:18;;;;;;;;;9.00;8.75;;;;;20.58;37.89;101478.00;5017718;28;45473;-56
2021/10/17 00:15:43;;;;;;;;;10.50;10.50;;;;;20.58;38.07;101476.22;5017497;28;45581;-56
2021/10/17 00:18:09;;;;;;;;;8.00;7.25;;;;;20.58;37.78;101480.66;5017196;28;45377;-56
2021/10/17 00:20:38;;;;;;;;;9.00;9.00;;;;;20.58;37.87;101473.56;5017077;28;45452;-57
2021/10/17 00:23:04;;;;;;;;;10.00;9.75;;;;;20.58;37.50;101473.56;5017224;28;45300;-56
2021/10/17 00:25:29;;;;;;;;;10.00;9.00;;;;;20.59;37.92;101471.81;5017281;28;45234;-57
2021/10/17 00:27:55;;;;;;;;;11.25;9.75;;;;;20.58;37.66;101470.94;5016937;28;45303;-57
2021/10/17 00:30:20;;;;;;;;;10.00;8.25;;;;;20.59;37.58;101463.91;5017171;28;45246;-57
2021/10/17 00:32:46;;;;;;;;;8.00;8.00;;;;;20.59;37.89;101472.66;5017182;28;45299;-56
2021/10/17 00:35:13;;;;;;;;;9.75;8.25;;;;;20.60;38.12;101470.91;5017230;28;45686;-56
2021/10/17 00:37:39;;;;;;;;;12.00;10.50;;;;;20.59;37.82;101467.38;5016594;28;47426;-57
2021/10/17 00:40:10;;;;;;;;;9.50;7.50;;;;;20.59;37.54;101472.66;5016835;28;45411;-57
2021/10/17 00:42:36;;;;;;;;;12.25;9.25;;;;;20.58;37.76;101470.94;5017036;28;45235;-57
2021/10/17 00:45:05;;;;;;;;;13.25;10.00;;;;;20.59;37.54;101477.94;5017091;28;45435;-56
2021/10/17 00:47:31;;;;;;;;;8.50;7.50;;;;;20.59;38.26;101483.19;5016639;28;47315;-56
2021/10/17 00:49:56;;;;;;;;;13.25;7.50;;;;;20.58;38.07;101485.91;5016704;28;45415;-57
2021/10/17 00:52:21;;;;;;;;;9.00;8.00;;;;;20.59;37.91;101480.56;5017076;28;45353;-56
2021/10/17 00:54:48;;;;;;;;;9.50;8.75;;;;;20.57;37.87;101477.13;5016836;28;45575;-56
2021/10/17 00:57:15;;;;;;;;;8.75;8.75;;;;;20.58;37.83;101473.56;4998854;28;46292;-56
2021/10/17 00:59:41;;;;;;;;;8.75;7.50;;;;;20.57;37.87;101477.13;5015858;28;45302;-56
2021/10/17 01:02:07;;;;;;;;;7.50;7.25;;;;;20.58;38.23;101464.84;5016754;28;45373;-56
2021/10/17 01:04:33;;;;;;;;;9.00;7.00;;;;;20.58;38.08;101464.84;5016824;28;45373;-56
2021/10/17 01:06:58;;;;;;;;;8.00;8.00;;;;;20.57;37.89;101461.34;5016092;28;46543;-56
2021/10/17 01:09:24;;;;;;;;;9.00;8.25;;;;;20.58;38.03;101460.41;5016434;28;45408;-55
2021/10/17 01:11:49;;;;;;;;;9.25;9.25;;;;;20.55;38.09;101458.78;5016826;28;45815;-56
2021/10/17 01:14:19;;;;;;;;;6.75;6.50;;;;;20.59;37.80;101456.03;5016385;28;45261;-55
2021/10/17 01:16:45;;;;;;;;;9.00;8.00;;;;;20.58;37.76;101463.03;5016277;28;46540;-56
2021/10/17 01:19:11;;;;;;;;;10.00;7.50;;;;;20.57;37.93;101453.44;5016181;28;45342;-57
2021/10/17 01:21:38;;;;;;;;;9.50;8.50;;;;;20.58;38.25;101454.31;5016194;28;45432;-57
2021/10/17 01:24:05;;;;;;;;;8.75;8.00;;;;;20.58;38.20;101454.31;5016500;28;45384;-56
2021/10/17 01:26:30;;;;;;;;;8.25;5.75;;;;;20.58;38.23;101452.50;5016188;28;45436;-57
2021/10/17 01:28:55;;;;;;;;;9.00;7.00;;;;;20.59;38.09;101451.59;5016181;28;45424;-56
2021/10/17 01:31:52;;;;;;;;;6.00;5.50;;;;;20.59;38.25;101450.75;5016658;28;45404;-56
2021/10/17 01:34:18;;;;;;;;;11.75;7.25;;;;;20.60;38.07;101455.09;4998033;28;45331;-57
2021/10/17 01:36:44;;;;;;;;;8.25;7.75;;;;;20.59;38.32;101451.59;5015936;28;47425;-56
2021/10/17 01:39:13;;;;;;;;;10.25;7.00;;;;;20.60;38.15;101448.03;5015877;28;45231;-57
2021/10/17 01:41:39;;;;;;;;;6.50;4.75;;;;;20.60;37.89;101455.09;5016045;28;45444;-57
2021/10/17 01:44:15;;;;;;;;;7.75;7.75;;;;;20.60;38.05;101457.72;5016002;28;45314;-56
2021/10/17 01:46:41;;;;;;;;;8.75;8.00;;;;;20.60;38.21;101458.56;4997876;28;47308;-56
2021/10/17 01:49:10;;;;;;;;;9.00;7.25;;;;;20.59;38.53;101456.03;5015957;28;45910;-57
2021/10/17 01:51:36;;;;;;;;;10.50;9.50;;;;;20.59;38.27;101456.84;4998202;28;45293;-56
2021/10/17 01:54:04;;;;;;;;;7.75;7.75;;;;;20.59;37.96;101454.22;5015912;28;45602;-56
2021/10/17 01:56:30;;;;;;;;;7.25;7.25;;;;;20.58;38.20;101457.78;5015528;28;45526;-56
2021/10/17 01:58:55;;;;;;;;;6.75;6.75;;;;;20.58;37.85;101447.25;4998126;28;45471;-56
2021/10/17 02:01:20;;;;;;;;;7.00;7.00;;;;;20.58;38.28;101449.03;5015658;28;45598;-56
2021/10/17 02:03:46;;;;;;;;;9.25;7.25;;;;;20.58;38.48;101454.31;5015723;28;45548;-56
2021/10/17 02:06:11;;;;;;;;;7.50;7.00;;;;;20.57;38.54;101456.06;5015655;28;45830;-56
2021/10/17 02:08:36;;;;;;;;;11.00;7.75;;;;;20.57;38.55;101456.06;5015718;28;45836;-56
2021/10/17 02:11:02;;;;;;;;;7.25;6.25;;;;;20.57;38.33;101453.44;5018173;28;45434;-56
2021/10/17 02:13:27;;;;;;;;;6.00;6.00;;;;;20.55;38.58;101456.16;5034700;28;45524;-56
2021/10/17 02:15:53;;;;;;;;;8.75;8.00;;;;;20.57;38.36;101442.91;5019035;28;45593;-56
2021/10/17 02:18:18;;;;;;;;;8.75;7.75;;;;;20.57;38.34;101447.31;5019063;28;45220;-56
2021/10/17 02:20:44;;;;;;;;;7.75;6.75;;;;;20.57;38.53;101442.91;5034548;28;45229;-56
2021/10/17 02:23:09;;;;;;;;;7.00;7.00;;;;;20.57;38.50;101444.69;5034513;28;45266;-56
2021/10/17 02:25:34;;;;;;;;;8.25;6.75;;;;;20.58;38.29;101443.78;5018807;28;45463;-56
2021/10/17 02:28:01;;;;;;;;;5.25;5.25;;;;;20.57;38.29;101447.31;5018819;28;45229;-56
2021/10/17 02:30:26;;;;;;;;;9.00;6.25;;;;;20.57;38.00;101440.28;5019391;28;45667;-56
2021/10/17 02:32:52;;;;;;;;;8.00;7.25;;;;;20.55;38.56;101445.63;5001402;28;45530;-56
2021/10/17 02:35:17;;;;;;;;;7.75;7.75;;;;;20.57;38.52;101445.53;5018895;28;45451;-56
2021/10/17 02:37:43;;;;;;;;;6.50;6.50;;;;;20.58;38.50;101443.78;5018756;28;45300;-56
2021/10/17 02:40:09;;;;;;;;;7.00;7.00;;;;;20.57;38.32;101444.69;5018939;28;45341;-56
2021/10/17 02:42:35;;;;;;;;;9.25;8.00;;;;;20.57;38.53;101448.16;5019091;28;45403;-56
2021/10/17 02:45:00;;;;;;;;;9.75;8.75;;;;;20.54;38.33;101443.06;5018417;28;45363;-56
2021/10/17 02:47:27;;;;;;;;;8.00;7.25;;;;;20.55;38.42;101445.63;5019008;28;45348;-55
2021/10/17 02:49:52;;;;;;;;;7.25;6.75;;;;;20.55;38.30;101450.88;5018869;28;45244;-56
2021/10/17 02:52:18;;;;;;;;;9.50;8.00;;;;;20.57;38.47;101436.78;5018862;28;45294;-56
2021/10/17 02:54:43;;;;;;;;;10.00;8.50;;;;;20.55;38.29;101437.72;5018409;28;45764;-56
2021/10/17 02:57:09;;;;;;;;;7.25;6.75;;;;;20.55;38.64;101436.88;5018583;28;45790;-56
2021/10/17 02:59:34;;;;;;;;;8.75;8.50;;;;;20.57;38.40;101431.53;5018546;28;45818;-56
2021/10/17 03:01:59;;;;;;;;;9.25;8.00;;;;;20.55;38.37;101423.72;5018677;28;45389;-56
2021/10/17 03:04:25;;;;;;;;;6.00;6.00;;;;;20.54;38.50;101427.25;5018366;28;51791;-56
2021/10/17 03:06:50;;;;;;;;;7.75;6.75;;;;;20.55;38.29;101426.34;5033754;28;45678;-56
2021/10/17 03:09:15;;;;;;;;;9.50;6.75;;;;;20.55;38.74;101431.59;5018351;28;45291;-56
2021/10/17 03:11:41;;;;;;;;;7.75;7.50;;;;;20.52;38.31;101429.09;5017270;28;45465;-56
2021/10/17 03:14:06;;;;;;;;;8.25;7.75;;;;;20.54;38.43;101433.38;5018248;28;45437;-56
2021/10/17 03:16:32;;;;;;;;;9.25;6.50;;;;;20.57;38.19;101442.91;5018063;28;45403;-56
2021/10/17 03:18:57;;;;;;;;;8.00;8.00;;;;;20.54;38.67;101427.25;5018656;28;45469;-56
2021/10/17 03:21:23;;;;;;;;;9.50;8.00;;;;;20.53;38.50;101438.72;5017793;28;45516;-56
2021/10/17 03:23:48;;;;;;;;;9.25;8.00;;;;;20.52;38.59;101424.69;5017945;28;45543;-56
2021/10/17 03:26:14;;;;;;;;;6.75;6.75;;;;;20.54;38.25;101427.25;5018004;28;45390;-56
2021/10/17 03:28:39;;;;;;;;;7.75;7.00;;;;;20.54;38.27;101427.25;5018135;28;45407;-56
2021/10/17 03:31:07;;;;;;;;;8.25;7.00;;;;;20.53;38.72;101431.66;5000195;28;45941;-55
2021/10/17 03:33:33;;;;;;;;;6.50;6.50;;;;;20.52;38.69;101429.09;5017899;28;47201;-56
2021/10/17 03:35:59;;;;;;;;;9.50;7.25;;;;;20.54;38.89;101422.00;5018143;28;45683;-56
2021/10/17 03:38:25;;;;;;;;;7.50;7.50;;;;;20.53;38.74;101420.28;5018011;28;45243;-55
2021/10/17 03:40:50;;;;;;;;;7.25;7.25;;;;;20.53;38.40;101413.22;5018169;28;45227;-56
2021/10/17 03:43:16;;;;;;;;;6.25;6.25;;;;;20.53;38.51;101417.66;5017725;28;46064;-56
2021/10/17 03:45:41;;;;;;;;;9.75;8.75;;;;;20.53;38.38;101410.59;5018018;28;45510;-56
2021/10/17 03:48:07;;;;;;;;;7.00;7.00;;;;;20.53;38.88;101409.75;5017921;28;45373;-56
2021/10/17 03:50:33;;;;;;;;;10.00;7.75;;;;;20.54;38.77;101406.19;5017891;28;45526;-56
2021/10/17 03:53:00;;;;;;;;;7.00;6.75;;;;;20.53;38.96;101397.44;5017903;28;45470;-56
2021/10/17 03:55:25;;;;;;;;;7.00;6.75;;;;;20.58;38.59;101410.38;5017598;28;45393;-56
2021/10/17 03:57:51;;;;;;;;;7.00;6.50;;;;;20.61;38.51;101410.25;5017544;28;45309;-56
2021/10/17 04:00:16;;;;;;;;;5.00;5.00;;;;;20.65;38.79;101413.56;5017758;28;45448;-56
2021/10/17 04:02:41;;;;;;;;;6.75;6.75;;;;;20.71;38.61;101413.31;5017165;28;46164;-56
2021/10/17 04:05:07;;;;;;;;;7.75;7.75;;;;;20.78;38.58;101413.91;5017727;28;45241;-56
2021/10/17 04:07:35;;;;;;;;;6.25;6.25;;;;;20.82;38.60;101405.78;5017562;28;45254;-57
2021/10/17 04:10:00;;;;;;;;;8.50;8.25;;;;;20.87;38.42;101408.19;5017843;28;45338;-56
2021/10/17 04:12:26;;;;;;;;;7.25;6.25;;;;;20.93;38.96;101401.78;5017209;28;45625;-55
2021/10/17 04:14:51;;;;;;;;;8.25;8.25;;;;;20.98;38.91;101402.41;5017275;28;45306;-61
2021/10/17 04:17:16;;;;;;;;;9.00;6.00;;;;;21.03;38.40;101402.19;5017052;28;46143;-56
2021/10/17 04:19:42;;;;;;;;;8.50;7.00;;;;;21.07;38.91;101404.59;5017443;28;45290;-56
2021/10/17 04:22:07;;;;;;;;;8.25;8.25;;;;;21.12;38.89;101404.34;5017012;28;46486;-56
2021/10/17 04:24:32;;;;;;;;;8.75;7.00;;;;;21.15;38.78;101402.44;4999701;28;45485;-56
2021/10/17 04:26:58;;;;;;;;;9.25;8.50;;;;;21.19;38.28;101397.88;5017466;28;45267;-56
2021/10/17 04:29:23;;;;;;;;;7.50;7.50;;;;;21.24;38.59;101403.75;5017452;28;45940;-56
2021/10/17 04:31:48;;;;;;;;;8.50;7.50;;;;;21.28;38.48;101401.81;5017003;28;45457;-56
2021/10/17 04:34:14;;;;;;;;;6.75;6.75;;;;;21.33;38.63;101409.53;5015632;28;45352;-57
2021/10/17 04:36:39;;;;;;;;;7.00;6.25;;;;;21.37;38.21;101411.06;5017086;28;45388;-56
2021/10/17 04:39:06;;;;;;;;;8.75;7.00;;;;;21.38;38.08;101408.38;5017120;28;45448;-56
2021/10/17 04:41:33;;;;;;;;;8.50;7.50;;;;;21.43;38.34;101406.34;5016976;28;46893;-56
2021/10/17 04:43:58;;;;;;;;;5.25;5.25;;;;;21.47;38.48;101407.03;5016788;28;45325;-57
2021/10/17 04:46:24;;;;;;;;;7.50;6.75;;;;;21.48;38.28;101395.56;5017042;28;45333;-56
2021/10/17 04:48:49;;;;;;;;;6.00;6.00;;;;;21.51;38.35;101402.44;5017100;28;45590;-57
2021/10/17 04:51:14;;;;;;;;;6.75;6.00;;;;;21.55;38.12;101409.28;5016613;28;45366;-56
2021/10/17 04:53:40;;;;;;;;;7.75;6.25;;;;;21.57;38.03;101402.16;4998905;28;45288;-56
2021/10/17 04:56:05;;;;;;;;;7.50;6.25;;;;;21.58;37.96;101407.34;5016587;28;45298;-56
2021/10/17 04:58:30;;;;;;;;;8.50;7.00;;;;;21.60;38.25;101402.88;5017061;28;45159;-56
2021/10/17 05:00:56;;;;;;;;;9.75;7.50;;;;;21.61;38.24;101414.28;5016574;28;46252;-56
2021/10/17 05:03:22;;;;;;;;;6.75;6.75;;;;;21.62;38.16;101411.56;5016400;28;45349;-56
2021/10/17 05:05:48;;;;;;;;;7.25;7.25;;;;;21.62;38.17;101414.22;5016737;28;45291;-56
2021/10/17 05:08:15;;;;;;;;;7.75;7.50;;;;;21.64;38.53;101415.94;5016841;28;45454;-56
2021/10/17 05:10:40;;;;;;;;;7.00;7.00;;;;;21.65;38.28;101412.34;5016360;28;45822;-56
2021/10/17 05:13:06;;;;;;;;;8.00;7.00;;;;;21.65;38.28;101405.28;5016419;28;45368;-57
2021/10/17 05:15:31;;;;;;;;;7.75;7.50;;;;;21.64;38.27;101408.84;4998915;28;45334;-57
2021/10/17 05:17:56;;;;;;;;;9.00;7.00;;;;;21.64;38.20;101418.56;5016617;28;45317;-57
2021/10/17 05:20:22;;;;;;;;;6.00;6.00;;;;;21.63;38.47;101409.78;5016261;28;45275;-57
2021/10/17 05:22:47;;;;;;;;;7.00;7.00;;;;;21.63;38.24;101409.78;5016222;28;45466;-57
2021/10/17 05:25:13;;;;;;;;;7.00;6.00;;;;;21.62;37.92;101406.31;5016379;28;45244;-57
2021/10/17 05:27:39;;;;;;;;;7.00;5.50;;;;;21.61;38.46;101409.88;5016506;28;45377;-56
2021/10/17 05:30:05;;;;;;;;;7.00;7.00;;;;;21.61;38.18;101404.59;5016469;28;45457;-56
2021/10/17 05:32:30;;;;;;;;;8.00;8.00;;;;;21.62;38.60;101416.84;5016059;28;45839;-56
2021/10/17 05:34:56;;;;;;;;;8.50;7.50;;;;;21.60;38.16;101409.94;5016237;28;45325;-55
2021/10/17 05:37:21;;;;;;;;;7.00;7.00;;;;;21.60;37.91;101416.06;4998511;28;45368;-58
2021/10/17 05:39:46;;;;;;;;;6.75;6.75;;;;;21.59;37.84;101411.72;5015922;28;45708;-57
2021/10/17 05:42:12;;;;;;;;;6.00;5.75;;;;;21.59;38.10;101411.72;5016132;28;45354;-57
2021/10/17 05:44:37;;;;;;;;;7.75;6.75;;;;;21.60;38.10;101418.72;5016448;28;45462;-57
2021/10/17 05:47:03;;;;;;;;;6.25;5.75;;;;;21.59;38.26;101421.44;5020235;28;45633;-57
2021/10/17 05:49:28;;;;;;;;;8.00;7.00;;;;;21.58;37.97;101420.53;5019625;28;46271;-57
2021/10/17 05:51:53;;;;;;;;;8.00;6.25;;;;;21.59;38.36;101426.72;5019485;28;45441;-57
2021/10/17 05:54:19;;;;;;;;;7.75;7.00;;;;;21.58;38.17;101422.34;5019541;28;45452;-57
2021/10/17 05:56:44;;;;;;;;;8.25;7.00;;;;;21.57;37.94;101421.47;5034931;28;45678;-57
2021/10/17 05:59:09;;;;;;;;;6.00;6.00;;;;;21.55;37.94;101420.69;5019295;28;45597;-57
2021/10/17 06:01:36;;;;;;;;;8.00;6.00;;;;;21.55;38.34;101423.31;5019681;28;45255;-57
2021/10/17 06:04:02;;;;;;;;;9.00;9.00;;;;;21.55;38.25;101423.31;5019181;28;45318;-57
2021/10/17 06:06:27;;;;;;;;;7.50;6.25;;;;;21.56;37.98;101424.19;5001759;28;45356;-57
2021/10/17 06:08:55;;;;;;;;;9.00;9.00;;;;;21.53;38.32;101422.56;5019041;28;46377;-57
2021/10/17 06:11:20;;;;;;;;;6.25;6.25;;;;;21.54;37.98;101429.56;5001254;28;46152;-57
2021/10/17 06:13:46;;;;;;;;;9.50;7.00;;;;;21.53;38.23;101429.59;5019239;28;45436;-57
2021/10/17 06:16:11;;;;;;;;;8.50;6.75;;;;;21.52;37.57;101431.41;5019358;28;45420;-57
2021/10/17 06:18:37;;;;;;;;;5.00;5.00;;;;;21.53;37.74;101429.59;5019333;28;45445;-57
2021/10/17 06:21:02;;;;;;;;;6.00;6.00;;;;;21.50;37.97;101433.25;5019051;28;45344;-57
2021/10/17 06:23:28;;;;;;;;;6.75;6.75;;;;;21.51;37.78;101437.59;5019129;28;45338;-57
2021/10/17 06:25:53;;;;;;;;;9.25;6.50;;;;;21.51;37.89;101437.59;5019217;28;45337;-57
2021/10/17 06:28:19;;;;;;;;;9.25;7.00;;;;;21.49;38.21;101444.75;5018822;28;46435;-56
2021/10/17 06:30:44;;;;;;;;;5.00;5.00;;;;;21.48;37.95;101448.31;5018896;28;45449;-56
2021/10/17 06:33:09;;;;;;;;;8.25;6.50;;;;;21.46;38.19;101448.38;5019175;28;45400;-57
2021/10/17 06:35:35;;;;;;;;;6.75;6.75;;;;;21.47;38.31;101449.22;5019314;28;45593;-57
2021/10/17 06:38:00;;;;;;;;;7.50;6.00;;;;;21.45;37.85;101449.31;5018648;28;47245;-56
2021/10/17 06:40:26;;;;;;;;;7.25;7.25;;;;;21.45;37.81;101451.09;5018707;28;45487;-56
2021/10/17 06:42:51;;;;;;;;;9.50;7.00;;;;;21.44;38.00;101454.69;5018702;28;45427;-56
2021/10/17 06:45:16;;;;;;;;;7.00;6.25;;;;;21.42;37.89;101467.06;5018968;28;45226;-56
2021/10/17 06:47:42;;;;;;;;;7.25;7.25;;;;;21.40;38.13;101461.84;5018617;28;45534;-56
2021/10/17 06:50:07;;;;;;;;;9.00;8.00;;;;;21.41;37.78;101470.63;5018831;28;45229;-57
2021/10/17 06:52:33;;;;;;;;;8.75;7.50;;;;;21.39;38.27;101477.78;5017362;28;45415;-56
2021/10/17 06:54:58;;;;;;;;;6.00;5.00;;;;;21.39;38.36;101483.88;5018629;28;45549;-57
2021/10/17 06:57:23;;;;;;;;;10.75;10.00;;;;;21.39;38.01;101485.69;5017326;28;45997;-56
2021/10/17 06:59:49;;;;;;;;;9.75;9.50;;;;;21.35;38.38;101484.97;5018428;28;45230;-56
2021/10/17 07:02:14;;;;;;;;;7.00;7.00;;;;;21.31;38.20;101481.66;5018597;28;45342;-57
2021/10/17 07:04:39;;;;;;;;;8.00;6.50;;;;;21.30;37.68;101482.56;5018866;28;45544;-57
2021/10/17 07:07:05;;;;;;;;;9.00;9.00;;;;;21.29;38.05;101488.75;5018480;28;46349;-57
2021/10/17 07:09:30;;;;;;;;;8.75;8.25;;;;;21.25;37.53;101487.19;5018373;28;45381;-57
2021/10/17 07:11:55;;;;;;;;;11.00;11.00;;;;;21.25;37.89;101492.47;5018418;28;45235;-57
2021/10/17 07:14:21;;;;;;;;;13.00;10.25;;;;;21.22;37.97;101492.59;5018488;28;45663;-56
2021/10/17 07:16:47;;;;;;;;;11.75;11.75;;;;;21.20;37.80;101489.22;5018113;28;45282;-56
2021/10/17 07:19:12;;;;;;;;;10.00;9.00;;;;;21.19;37.56;101484.88;5018201;28;45821;-57
2021/10/17 07:21:38;;;;;;;;;9.75;9.75;;;;;21.18;37.67;101491.06;5018562;28;45327;-57
2021/10/17 07:24:03;;;;;;;;;11.25;11.25;;;;;21.16;37.21;101482.38;5018486;28;45300;-57
2021/10/17 07:26:29;;;;;;;;;11.25;9.00;;;;;21.13;37.43;101477.22;5018018;28;46585;-57
2021/10/17 07:28:54;;;;;;;;;11.00;10.00;;;;;21.12;37.77;101480.78;5018062;28;45389;-58
2021/10/17 07:31:19;;;;;;;;;8.50;8.00;;;;;21.11;37.42;101479.13;5018180;28;45443;-57
2021/10/17 07:33:45;;;;;;;;;9.00;8.00;;;;;21.11;37.67;101484.38;5018113;28;45656;-57
2021/10/17 07:36:10;;;;;;;;;11.00;8.50;;;;;21.09;37.35;101487.06;5017946;28;46663;-57
2021/10/17 07:38:35;;;;;;;;;7.25;7.25;;;;;21.10;37.74;101487.94;5017855;28;45376;-57
2021/10/17 07:41:01;;;;;;;;;8.00;8.00;;;;;21.10;37.83;101494.06;5017779;28;45329;-57
2021/10/17 07:43:26;;;;;;;;;9.25;8.25;;;;;21.10;37.84;101495.84;5017783;28;45367;-57
2021/10/17 07:45:51;;;;;;;;;7.25;7.25;;;;;21.10;37.31;101493.22;5017689;28;46551;-57
2021/10/17 07:48:17;;;;;;;;;9.00;6.25;;;;;21.10;37.89;101495.84;5017655;28;45639;-57
2021/10/17 07:50:42;;;;;;;;;7.25;7.25;;;;;21.10;37.65;101498.50;5018053;28;45246;-57
2021/10/17 07:53:08;;;;;;;;;8.00;8.00;;;;;21.11;37.67;101500.19;5017491;28;45504;-57
2021/10/17 07:55:34;;;;;;;;;8.25;8.25;;;;;21.07;37.79;101488.09;5017489;28;46369;-57
2021/10/17 07:57:59;;;;;;;;;8.00;8.00;;;;;21.09;37.68;101492.34;4999696;28;45274;-57
2021/10/17 08:00:27;;;;;;;;;9.25;8.00;;;;;21.09;37.51;101502.06;5017698;28;45402;-57
2021/10/17 08:02:53;;;;;;;;;7.25;7.25;;;;;21.09;37.76;101494.13;5017420;28;45368;-57
2021/10/17 08:05:19;;;;;;;;;6.50;6.25;;;;;21.09;37.45;101491.50;5017403;28;46691;-57
2021/10/17 08:07:45;;;;;;;;;11.75;8.50;;;;;21.09;37.94;101488.88;5017108;28;45398;-57
2021/10/17 08:10:12;;;;;;;;;7.00;7.00;;;;;21.08;37.59;101489.78;5017671;28;45476;-57
2021/10/17 08:12:38;;;;;;;;;10.50;7.00;;;;;21.09;37.38;101497.63;5017611;28;45239;-57
2021/10/17 08:15:04;;;;;;;;;7.25;7.25;;;;;21.08;37.91;101489.78;5017098;28;45334;-57
2021/10/17 08:17:31;;;;;;;;;7.00;6.25;;;;;21.07;37.76;101485.44;5016979;28;45355;-57
2021/10/17 08:19:56;;;;;;;;;6.50;6.50;;;;;21.08;37.88;101495.91;5017123;28;45330;-57
2021/10/17 08:22:23;;;;;;;;;7.00;7.00;;;;;21.08;37.84;101495.06;5017344;28;45625;-57
2021/10/17 08:24:48;;;;;;;;;8.00;7.25;;;;;21.06;37.43;101491.63;5016934;28;46532;-58
2021/10/17 08:27:14;;;;;;;;;7.00;7.00;;;;;21.07;37.37;101496.81;5032569;28;45490;-57
2021/10/17 08:29:39;;;;;;;;;8.00;8.00;;;;;21.07;37.85;101496.00;5016997;28;45703;-57
2021/10/17 08:32:05;;;;;;;;;8.00;6.00;;;;;21.06;37.45;101495.13;5017267;28;45489;-57
2021/10/17 08:34:31;;;;;;;;;7.75;6.00;;;;;21.06;37.32;101489.84;5016913;28;45428;-57
2021/10/17 08:36:56;;;;;;;;;7.75;6.50;;;;;21.07;37.80;101488.94;5016967;28;45837;-57
2021/10/17 08:39:21;;;;;;;;;8.00;8.00;;;;;21.06;37.95;101479.31;5017045;28;45425;-57
2021/10/17 08:41:46;;;;;;;;;6.25;6.25;;;;;21.07;37.53;101472.28;5017372;28;45437;-57
2021/10/17 08:44:13;;;;;;;;;6.25;6.25;;;;;21.08;37.55;101484.53;5032466;28;48005;-57
2021/10/17 08:46:39;;;;;;;;;7.75;6.75;;;;;21.08;37.81;101481.88;5016880;28;45880;-57
2021/10/17 08:49:05;;;;;;;;;6.00;6.00;;;;;21.06;37.89;101481.09;4999341;28;45343;-57
2021/10/17 08:51:30;;;;;;;;;7.25;7.00;;;;;21.04;38.04;101475.91;5017055;28;45306;-57
2021/10/17 08:53:59;;;;;;;;;6.75;6.75;;;;;21.07;38.02;101477.53;5016526;28;45546;-57
2021/10/17 08:56:25;;;;;;;;;5.75;5.50;;;;;21.06;37.49;101476.66;5016490;28;45892;-58
2021/10/17 08:58:50;;;;;;;;;9.25;6.75;;;;;21.08;37.79;101479.25;4999108;28;45491;-57
2021/10/17 09:01:16;;;;;;;;;7.00;6.75;;;;;21.07;37.98;101483.66;5017285;28;45351;-58
2021/10/17 09:03:42;;;;;;;;;5.00;4.75;;;;;21.06;38.10;101481.94;5016364;28;46320;-57
2021/10/17 09:06:24;;;;;;;;;6.00;6.00;;;;;21.07;37.72;101488.94;5016663;28;45405;-57
2021/10/17 09:09:20;;;;;;;;;6.00;6.00;;;;;21.08;37.57;101481.88;5016506;28;45392;-57
2021/10/17 09:11:48;;;;;;;;;6.25;5.25;;;;;21.08;37.49;101495.91;5017117;28;45350;-57
2021/10/17 09:14:14;;;;;;;;;6.75;6.75;;;;;21.07;37.53;101488.94;5016343;28;45308;-57
2021/10/17 09:16:43;;;;;;;;;7.00;7.00;;;;;21.08;37.72;101489.78;5016384;28;45937;-57
2021/10/17 09:19:11;;;;;;;;;4.50;4.50;;;;;21.08;38.00;101495.91;5016074;28;45353;-57
2021/10/17 09:21:38;;;;;;;;;6.75;6.75;;;;;21.08;38.02;101489.78;5016324;28;45627;-57
2021/10/17 09:24:03;;;;;;;;;6.25;6.25;;;;;21.08;37.87;101489.78;5016274;28;45583;-56
2021/10/17 09:26:29;;;;;;;;;6.50;6.50;;;;;21.08;37.98;101489.78;5016263;28;45169;-57
2021/10/17 09:28:54;;;;;;;;;7.00;6.00;;;;;21.07;37.98;101488.94;5016355;28;45257;-57
2021/10/17 09:31:21;;;;;;;;;8.00;6.00;;;;;21.08;38.16;101493.28;5016387;28;45670;-57
2021/10/17 09:33:53;;;;;;;;;7.25;6.75;;;;;21.07;37.83;101496.00;5016395;28;45646;-57
2021/10/17 09:36:29;;;;;;;;;5.00;5.00;;;;;21.08;37.63;101487.16;5016398;28;45702;-57
2021/10/17 09:39:08;;;;;;;;;6.00;6.00;;;;;21.06;37.82;101481.94;5016181;28;45456;-58
2021/10/17 09:41:55;;;;;;;;;5.75;5.50;;;;;21.07;37.68;101477.53;5016385;28;45361;-58
2021/10/17 09:44:21;;;;;;;;;7.50;5.00;;;;;21.07;37.76;101474.91;5015775;28;45412;-57
2021/10/17 09:46:56;;;;;;;;;8.00;8.00;;;;;21.09;38.01;101483.59;5016184;28;45357;-58
2021/10/17 09:49:21;;;;;;;;;6.00;6.00;;;;;21.08;38.10;101476.63;5016178;28;45445;-58
2021/10/17 09:51:46;;;;;;;;;6.00;6.00;;;;;21.12;38.03;101476.41;5016475;28;45635;-57
2021/10/17 09:54:12;;;;;;;;;8.00;6.25;;;;;21.13;38.08;101464.94;5015810;28;46335;-57
2021/10/17 09:56:40;;;;;;;;;7.00;6.00;;;;;21.13;37.88;101471.97;5030969;28;45340;-58
2021/10/17 09:59:10;;;;;;;;;5.00;5.00;;;;;21.14;37.93;101469.28;4998275;28;45710;-57
2021/10/17 10:01:37;;;;;;;;;6.75;6.00;;;;;21.14;37.93;101471.91;5016109;28;45336;-58
2021/10/17 10:04:04;;;;;;;;;6.00;4.50;;;;;21.14;37.89;101473.66;5015503;28;45296;-58
2021/10/17 10:06:30;;;;;;;;;5.50;5.50;;;;;21.14;37.85;101473.66;5015870;28;45243;-58
2021/10/17 10:09:00;;;;;;;;;6.50;5.75;;;;;21.12;38.26;101470.25;5015869;28;45345;-58
2021/10/17 10:11:27;;;;;;;;;7.00;7.00;;;;;21.12;37.68;101470.25;5015772;28;45591;-58
2021/10/17 10:14:01;;;;;;;;;6.00;6.00;;;;;21.12;37.73;101470.25;5015541;28;45333;-58
2021/10/17 10:16:28;;;;;;;;;7.75;6.00;;;;;21.11;37.88;101471.22;5015427;28;45346;-57
2021/10/17 10:18:58;;;;;;;;;7.25;6.50;;;;;21.11;38.06;101472.03;5015632;28;45330;-57
2021/10/17 10:21:24;;;;;;;;;4.75;4.75;;;;;21.10;37.84;101467.69;4998030;28;45436;-58
2021/10/17 10:23:52;;;;;;;;;8.00;7.00;;;;;21.11;38.37;101479.13;5015603;28;45326;-58
2021/10/17 10:26:20;;;;;;;;;4.75;4.75;;;;;21.10;38.41;101470.34;5015775;28;45251;-57
2021/10/17 10:28:46;;;;;;;;;5.25;5.25;;;;;21.12;38.26;101476.41;5015871;28;45302;-57
2021/10/17 10:31:39;;;;;;;;;5.50;5.50;;;;;21.13;38.16;101471.97;5016736;28;45294;-58
2021/10/17 10:34:05;;;;;;;;;6.00;6.00;;;;;21.11;37.74;101472.03;5018570;28;45357;-57
2021/10/17 10:36:42;;;;;;;;;6.00;6.00;;;;;21.12;38.19;101465.84;5018767;28;45301;-56
2021/10/17 10:39:13;;;;;;;;;5.00;5.00;;;;;21.10;38.07;101465.06;5017283;28;45373;-57
2021/10/17 10:41:53;;;;;;;;;5.50;5.00;;;;;21.11;38.41;101471.22;5017321;28;45487;-57
2021/10/17 10:44:30;;;;;;;;;5.25;5.00;;;;;21.11;37.96;101473.84;5016266;28;45329;-56
2021/10/17 10:46:58;;;;;;;;;6.75;5.50;;;;;21.09;38.42;101466.00;5015532;28;46331;-56
2021/10/17 10:49:42;;;;;;;;;5.75;5.00;;;;;21.11;38.08;101463.31;5016691;28;45369;-57
2021/10/17 10:52:09;;;;;;;;;7.75;5.50;;;;;21.10;38.06;101462.44;4988273;28;45338;-57
2021/10/17 10:54:35;;;;;;;;;8.50;7.00;;;;;21.11;38.47;101473.84;4998311;28;46277;-57
2021/10/17 10:57:00;;;;;;;;;4.00;4.00;;;;;21.10;38.54;101461.59;4998396;28;45376;-58
2021/10/17 10:59:45;;;;;;;;;5.00;5.00;;;;;21.11;38.06;101468.56;4998391;28;45361;-57
2021/10/17 11:02:13;;;;;;;;;6.50;6.50;;;;;21.12;38.21;101463.22;4997980;28;52057;-57
2021/10/17 11:04:39;;;;;;;;;4.75;4.25;;;;;21.11;38.27;101453.59;4998295;28;46497;-57
2021/10/17 11:07:27;;;;;;;;;6.75;6.75;;;;;21.11;38.32;101455.41;4998422;28;45940;-58
2021/10/17 11:09:54;;;;;;;;;8.00;6.75;;;;;21.11;38.22;101456.22;4981279;28;45398;-57
2021/10/17 11:12:41;;;;;;;;;11.00;6.25;;;;;21.10;38.24;101466.84;4998828;28;45576;-58
2021/10/17 11:15:07;;;;;;;;;7.00;5.25;;;;;21.10;38.69;101461.59;4997866;28;45496;-58
2021/10/17 11:17:33;;;;;;;;;5.25;5.25;;;;;21.08;38.29;101458.16;4998174;28;46113;-57
2021/10/17 11:19:58;;;;;;;;;7.75;6.00;;;;;21.08;38.47;101469.53;4998338;28;45473;-56
2021/10/17 11:22:24;;;;;;;;;5.50;5.25;;;;;21.07;38.56;101459.94;4998571;28;45329;-57